createdAt,value
2023-02-08T00:00:38.650Z,7.94
2023-02-08T00:01:38.326Z,8.02
2023-02-08T00:02:38.468Z,8.61
2023-02-08T00:03:38.432Z,7.34
2023-02-08T00:04:38.460Z,7.91
2023-02-08T00:05:38.512Z,8.60
2023-02-08T00:06:38.538Z,8.39
2023-02-08T00:07:38.581Z,7.81
2023-02-08T00:08:38.658Z,8.03
2023-02-08T00:09:38.731Z,7.68
2023-02-08T00:10:39.284Z,7.81
2023-02-08T00:11:38.790Z,7.41
2023-02-08T00:12:38.853Z,8.37
2023-02-08T00:13:41.567Z,8.07
2023-02-08T00:14:38.893Z,7.16
2023-02-08T00:15:38.886Z,7.77
2023-02-08T00:16:38.956Z,7.99
2023-02-08T00:17:38.885Z,8.00
2023-02-08T00:18:38.871Z,7.64
2023-02-08T00:19:38.859Z,7.73
2023-02-08T00:20:39.164Z,7.83
2023-02-08T00:21:38.857Z,6.83
2023-02-08T00:22:38.943Z,6.43
2023-02-08T00:23:38.839Z,6.97
2023-02-08T00:24:38.823Z,7.37
2023-02-08T00:25:38.854Z,7.37
2023-02-08T00:26:38.805Z,6.72
2023-02-08T00:27:38.802Z,7.00
2023-02-08T00:28:38.791Z,7.00
2023-02-08T00:29:38.895Z,7.15
2023-02-08T00:30:39.219Z,6.84
2023-02-08T00:31:38.954Z,6.95
2023-02-08T00:32:38.785Z,6.74
2023-02-08T00:33:38.751Z,7.00
2023-02-08T00:34:38.745Z,6.49
2023-02-08T00:35:38.742Z,6.80
2023-02-08T00:36:38.737Z,6.52
2023-02-08T00:37:38.730Z,6.38
2023-02-08T00:38:38.737Z,6.60
2023-02-08T00:39:38.720Z,7.20
2023-02-08T00:40:39.061Z,6.28
2023-02-08T00:41:38.680Z,6.51
2023-02-08T00:42:38.684Z,6.67
2023-02-08T00:43:38.703Z,6.95
2023-02-08T00:44:38.656Z,6.61
2023-02-08T00:45:38.711Z,6.57
2023-02-08T00:46:38.679Z,7.07
2023-02-08T00:47:38.676Z,7.37
2023-02-08T00:48:38.656Z,7.71
2023-02-08T00:49:38.641Z,7.12
2023-02-08T00:50:38.888Z,6.50
2023-02-08T00:51:38.649Z,6.89
2023-02-08T00:52:38.616Z,6.63
2023-02-08T00:53:38.630Z,6.48
2023-02-08T00:54:38.629Z,6.86
2023-02-08T00:55:38.632Z,6.53
2023-02-08T00:56:38.597Z,6.29
2023-02-08T00:57:38.592Z,6.96
2023-02-08T00:58:38.578Z,7.22
2023-02-08T00:59:38.569Z,6.96
2023-02-08T01:00:38.865Z,6.95
2023-02-08T01:01:39.357Z,6.50
2023-02-08T01:02:38.576Z,6.40
2023-02-08T01:03:38.569Z,6.12
2023-02-08T01:04:38.529Z,6.48
2023-02-08T01:05:38.549Z,7.23
2023-02-08T01:06:38.521Z,6.02
2023-02-08T01:07:38.507Z,6.83
2023-02-08T01:08:38.535Z,6.00
2023-02-08T01:09:38.469Z,6.89
2023-02-08T01:10:38.864Z,6.11
2023-02-08T01:11:38.506Z,6.45
2023-02-08T01:12:38.561Z,7.03
2023-02-08T01:13:38.481Z,6.77
2023-02-08T01:14:38.467Z,6.72
2023-02-08T01:15:38.465Z,7.18
2023-02-08T01:16:38.560Z,6.16
2023-02-08T01:17:38.463Z,6.83
2023-02-08T01:18:38.431Z,6.25
2023-02-08T01:19:38.425Z,7.02
2023-02-08T01:20:38.771Z,6.40
2023-02-08T01:21:38.482Z,6.39
2023-02-08T01:22:38.566Z,6.55
2023-02-08T01:23:38.604Z,6.10
2023-02-08T01:24:38.682Z,6.72
2023-02-08T01:25:38.738Z,6.37
2023-02-08T01:26:38.813Z,6.34
2023-02-08T01:27:38.847Z,6.01
2023-02-08T01:28:38.947Z,5.83
2023-02-08T01:29:38.967Z,5.57
2023-02-08T01:30:39.422Z,6.32
2023-02-08T01:31:39.039Z,6.06
2023-02-08T01:32:39.044Z,6.52
2023-02-08T01:33:39.087Z,6.35
2023-02-08T01:34:39.088Z,6.28
2023-02-08T01:35:39.108Z,6.24
2023-02-08T01:36:39.159Z,5.83
2023-02-08T01:37:39.140Z,6.10
2023-02-08T01:38:39.162Z,6.09
2023-02-08T01:41:39.215Z,5.68
2023-02-08T01:42:39.261Z,6.64
2023-02-08T01:43:39.249Z,6.46
2023-02-08T01:44:39.283Z,6.21
2023-02-08T01:45:39.326Z,5.80
2023-02-08T01:46:39.317Z,5.97
2023-02-08T01:47:39.354Z,6.72
2023-02-08T01:48:39.441Z,5.74
2023-02-08T01:49:39.464Z,6.19
2023-02-08T01:50:39.803Z,6.24
2023-02-08T01:51:39.564Z,6.18
2023-02-08T01:52:39.587Z,5.85
2023-02-08T01:53:39.642Z,5.83
2023-02-08T01:54:39.676Z,5.89
2023-02-08T01:55:39.741Z,5.70
2023-02-08T01:56:39.771Z,6.77
2023-02-08T01:57:39.786Z,5.83
2023-02-08T01:58:39.809Z,6.25
2023-02-08T01:59:39.892Z,6.54
2023-02-08T02:00:40.217Z,5.71
2023-02-08T02:01:39.967Z,5.62
2023-02-08T02:02:40.016Z,6.18
2023-02-08T02:03:40.040Z,6.05
2023-02-08T02:04:40.182Z,5.80
2023-02-08T02:05:40.054Z,6.35
2023-02-08T02:06:40.075Z,5.75
2023-02-08T02:07:40.089Z,5.94
2023-02-08T02:08:40.103Z,6.66
2023-02-08T02:09:40.126Z,6.01
2023-02-08T02:10:40.402Z,6.89
2023-02-08T02:11:40.219Z,6.22
2023-02-08T02:12:40.259Z,5.47
2023-02-08T02:13:40.281Z,6.32
2023-02-08T02:14:40.291Z,5.82
2023-02-08T02:15:40.360Z,6.44
2023-02-08T02:16:40.386Z,5.61
2023-02-08T02:17:40.393Z,5.56
2023-02-08T02:18:40.467Z,5.84
2023-02-08T02:19:40.467Z,5.78
2023-02-08T02:20:40.737Z,5.59
2023-02-08T02:21:40.545Z,5.69
2023-02-08T02:22:40.630Z,6.44
2023-02-08T02:23:40.614Z,6.15
2023-02-08T02:24:40.613Z,5.94
2023-02-08T02:25:40.633Z,5.39
2023-02-08T02:26:40.677Z,6.44
2023-02-08T02:27:40.745Z,5.31
2023-02-08T02:28:40.728Z,5.95
2023-02-08T02:29:40.792Z,5.42
2023-02-08T02:30:41.109Z,6.18
2023-02-08T02:31:40.912Z,5.60
2023-02-08T02:32:40.857Z,5.73
2023-02-08T02:33:40.867Z,6.08
2023-02-08T02:34:40.891Z,5.78
2023-02-08T02:35:40.951Z,5.22
2023-02-08T03:07:41.610Z,5.81
2023-02-08T03:10:41.896Z,4.99
2023-02-08T03:11:41.656Z,5.61
2023-02-08T03:12:41.678Z,5.17
2023-02-08T03:13:41.669Z,4.75
2023-02-08T03:14:41.695Z,5.00
2023-02-08T03:15:41.697Z,5.09
2023-02-08T03:16:41.821Z,5.10
2023-02-08T03:17:41.783Z,5.38
2023-02-08T03:59:42.336Z,5.32
2023-02-08T04:00:42.629Z,5.52
2023-02-08T04:01:42.412Z,5.05
2023-02-08T04:02:42.382Z,5.45
2023-02-08T04:03:42.367Z,4.87
2023-02-08T04:04:42.372Z,4.92
2023-02-08T04:05:42.382Z,5.14
2023-02-08T04:06:42.388Z,4.89
2023-02-08T04:07:42.437Z,5.11
2023-02-08T04:08:42.440Z,4.92
2023-02-08T04:09:42.430Z,4.65
2023-02-08T04:10:42.764Z,5.13
2023-02-08T04:11:42.441Z,4.78
2023-02-08T04:12:42.460Z,5.28
2023-02-08T04:13:42.454Z,5.76
2023-02-08T04:14:42.480Z,4.61
2023-02-08T04:15:42.580Z,4.90
2023-02-08T04:16:42.465Z,5.01
2023-02-08T04:17:42.503Z,4.71
2023-02-08T04:18:42.470Z,4.63
2023-02-08T04:19:42.480Z,5.46
2023-02-08T04:20:42.727Z,4.92
2023-02-08T04:21:42.518Z,4.52
2023-02-08T04:22:42.534Z,5.12
2023-02-08T04:23:42.543Z,4.88
2023-02-08T04:24:42.528Z,4.78
2023-02-08T04:25:42.560Z,4.63
2023-02-08T04:26:42.532Z,4.36
2023-02-08T04:27:42.566Z,4.66
2023-02-08T04:28:42.573Z,4.54
2023-02-08T04:29:42.583Z,4.54
2023-02-08T04:30:42.988Z,4.93
2023-02-08T04:31:42.627Z,4.43
2023-02-08T04:32:42.599Z,4.93
2023-02-08T04:33:42.599Z,4.69
2023-02-08T04:34:42.614Z,4.56
2023-02-08T04:35:42.619Z,4.34
2023-02-08T04:36:42.633Z,4.58
2023-02-08T04:37:42.613Z,4.47
2023-02-08T04:38:42.635Z,4.80
2023-02-08T04:39:42.671Z,5.35
2023-02-08T04:40:42.860Z,4.42
2023-02-08T04:41:42.674Z,4.16
2023-02-08T04:42:42.682Z,5.29
2023-02-08T04:43:42.674Z,4.38
2023-02-08T04:44:42.696Z,5.16
2023-02-08T04:45:42.700Z,4.78
2023-02-08T04:46:42.759Z,4.26
2023-02-08T04:47:42.722Z,4.92
2023-02-08T04:48:42.724Z,4.99
2023-02-08T04:49:42.717Z,4.47
2023-02-08T04:50:42.954Z,4.97
2023-02-08T04:51:42.768Z,4.55
2023-02-08T04:52:42.764Z,5.12
2023-02-08T04:53:42.784Z,4.51
2023-02-08T04:54:42.775Z,4.52
2023-02-08T04:55:42.789Z,4.69
2023-02-08T04:56:42.786Z,4.79
2023-02-08T04:57:42.804Z,4.97
2023-02-08T04:58:42.812Z,4.76
2023-02-08T04:59:42.848Z,4.49
2023-02-08T05:00:43.026Z,4.61
2023-02-08T05:01:42.930Z,4.86
2023-02-08T05:02:42.839Z,4.62
2023-02-08T05:03:42.889Z,4.70
2023-02-08T05:04:42.970Z,4.44
2023-02-08T05:05:42.894Z,5.26
2023-02-08T05:06:42.906Z,4.66
2023-02-08T05:07:42.909Z,4.19
2023-02-08T05:08:42.904Z,4.21
2023-02-08T05:09:43.071Z,4.74
2023-02-08T05:10:42.990Z,3.75
2023-02-08T05:11:42.990Z,4.54
2023-02-08T05:12:44.318Z,4.17
2023-02-08T05:13:43.042Z,3.88
2023-02-08T05:14:43.054Z,4.17
2023-02-08T05:15:43.098Z,4.37
2023-02-08T05:16:43.020Z,4.04
2023-02-08T05:17:43.005Z,3.83
2023-02-08T05:18:43.027Z,3.95
2023-02-08T05:19:43.026Z,3.57
2023-02-08T05:20:43.107Z,3.44
2023-02-08T05:21:43.010Z,3.80
2023-02-08T05:22:43.887Z,3.72
2023-02-08T05:23:44.355Z,3.25
2023-02-08T05:24:42.975Z,4.22
2023-02-08T05:25:42.951Z,3.80
2023-02-08T05:26:42.944Z,3.53
2023-02-08T05:27:42.973Z,3.34
2023-02-08T05:28:42.943Z,4.14
2023-02-08T05:29:42.904Z,3.77
2023-02-08T05:30:43.283Z,3.14
2023-02-08T05:31:42.975Z,3.58
2023-02-08T05:32:42.933Z,3.45
2023-02-08T05:33:42.902Z,3.62
2023-02-08T05:34:42.910Z,3.63
2023-02-08T05:35:42.905Z,3.65
2023-02-08T05:36:42.862Z,2.78
2023-02-08T05:37:42.868Z,3.06
2023-02-08T05:38:42.860Z,3.79
2023-02-08T05:39:42.848Z,3.55
2023-02-08T05:40:43.029Z,3.50
2023-02-08T05:41:42.820Z,3.25
2023-02-08T05:42:42.836Z,3.61
2023-02-08T05:43:42.825Z,3.39
2023-02-08T05:44:42.833Z,3.75
2023-02-08T05:45:42.843Z,3.19
2023-02-08T05:46:42.922Z,3.14
2023-02-08T05:47:42.797Z,2.99
2023-02-08T05:48:42.804Z,3.51
2023-02-08T05:49:42.780Z,3.25
2023-02-08T05:50:42.830Z,3.78
2023-02-08T05:51:42.787Z,3.45
2023-02-08T05:52:42.756Z,3.58
2023-02-08T05:53:42.735Z,4.18
2023-02-08T05:54:42.734Z,3.22
2023-02-08T05:55:42.749Z,3.43
2023-02-08T05:56:42.725Z,3.83
2023-02-08T05:57:42.742Z,3.51
2023-02-08T05:58:42.713Z,3.50
2023-02-08T05:59:42.703Z,4.00
2023-02-08T06:00:42.908Z,3.77
2023-02-08T06:01:50.281Z,3.61
2023-02-08T06:02:42.758Z,3.95
2023-02-08T06:03:42.689Z,4.04
2023-02-08T06:04:42.722Z,3.49
2023-02-08T06:05:42.675Z,4.34
2023-02-08T06:06:42.666Z,4.12
2023-02-08T06:07:42.686Z,3.80
2023-02-08T06:08:42.640Z,3.72
2023-02-08T06:09:42.651Z,3.75
2023-02-08T06:10:42.867Z,3.64
2023-02-08T06:11:42.665Z,3.70
2023-02-08T06:12:42.621Z,3.74
2023-02-08T06:13:42.646Z,4.17
2023-02-08T06:14:42.646Z,3.76
2023-02-08T06:15:42.637Z,3.50
2023-02-08T06:16:42.794Z,3.63
2023-02-08T06:17:42.665Z,3.83
2023-02-08T06:18:42.611Z,4.07
2023-02-08T06:19:42.622Z,4.13
2023-02-08T06:20:42.856Z,3.39
2023-02-08T06:21:42.600Z,3.88
2023-02-08T06:22:42.615Z,3.31
2023-02-08T06:23:42.546Z,3.62
2023-02-08T06:24:42.560Z,3.55
2023-02-08T06:25:42.559Z,4.06
2023-02-08T06:26:42.557Z,3.55
2023-02-08T06:27:42.684Z,3.44
2023-02-08T06:28:42.694Z,3.98
2023-02-08T06:29:42.742Z,3.50
2023-02-08T06:30:43.050Z,4.14
2023-02-08T06:31:42.920Z,7.18
2023-02-08T06:32:43.131Z,8.06
2023-02-08T06:33:42.885Z,7.68
2023-02-08T06:34:42.880Z,8.70
2023-02-08T06:35:43.002Z,7.83
2023-02-08T06:36:43.259Z,7.79
2023-02-08T06:37:43.357Z,7.83
2023-02-08T06:38:43.532Z,8.06
2023-02-08T06:39:43.191Z,7.77
2023-02-08T06:40:43.491Z,7.79
2023-02-08T06:41:43.340Z,7.73
2023-02-08T06:42:44.126Z,8.02
2023-02-08T06:43:44.135Z,7.82
2023-02-08T06:44:54.077Z,7.99
2023-02-08T06:47:02.384Z,7.47
2023-02-08T06:48:02.387Z,7.80
2023-02-08T06:49:02.420Z,6.65
2023-02-08T06:50:02.389Z,6.28
2023-02-08T06:51:02.388Z,5.77
2023-02-08T06:52:02.400Z,6.71
2023-02-08T06:53:02.312Z,5.71
2023-02-08T06:54:02.402Z,5.94
2023-02-08T06:55:02.342Z,5.90
2023-02-08T06:56:02.358Z,6.65
2023-02-08T06:57:02.308Z,5.96
2023-02-08T06:58:02.337Z,5.42
2023-02-08T06:59:02.295Z,6.01
2023-02-08T07:00:02.293Z,5.43
2023-02-08T07:01:02.322Z,5.45
2023-02-08T07:02:02.323Z,5.21
2023-02-08T07:03:02.275Z,5.69
2023-02-08T07:04:02.318Z,5.71
2023-02-08T07:05:02.336Z,5.18
2023-02-08T07:06:05.237Z,5.50
2023-02-08T07:07:02.242Z,5.24
2023-02-08T07:08:02.259Z,5.42
2023-02-08T07:09:02.216Z,4.90
2023-02-08T07:10:02.216Z,4.59
2023-02-08T07:11:02.242Z,4.93
2023-02-08T07:12:02.261Z,5.26
2023-02-08T07:13:02.235Z,4.73
2023-02-08T07:14:02.178Z,5.23
2023-02-08T07:15:02.214Z,4.85
2023-02-08T07:16:02.160Z,4.38
2023-02-08T07:17:02.613Z,4.75
2023-02-08T07:18:02.201Z,4.22
2023-02-08T07:19:02.152Z,4.56
2023-02-08T07:20:02.166Z,4.12
2023-02-08T07:21:02.172Z,4.20
2023-02-08T07:22:02.185Z,4.57
2023-02-08T07:23:02.103Z,4.78
2023-02-08T07:24:02.121Z,4.36
2023-02-08T07:25:02.146Z,4.40
2023-02-08T07:26:02.136Z,4.41
2023-02-08T07:27:02.627Z,4.45
2023-02-08T07:28:02.824Z,4.05
2023-02-08T07:29:02.134Z,4.96
2023-02-08T07:30:02.141Z,4.09
2023-02-08T07:31:02.171Z,5.31
2023-02-08T07:32:02.123Z,4.71
2023-02-08T07:33:02.083Z,4.47
2023-02-08T07:34:02.058Z,4.58
2023-02-08T07:35:02.081Z,5.51
2023-02-08T07:36:02.069Z,6.12
2023-02-08T07:37:02.086Z,5.88
2023-02-08T07:38:02.043Z,6.49
2023-02-08T07:39:02.049Z,6.07
2023-02-08T07:40:02.046Z,7.19
2023-02-08T07:41:02.037Z,6.41
2023-02-08T07:42:02.109Z,5.97
2023-02-08T07:43:02.013Z,5.59
2023-02-08T07:44:02.023Z,5.58
2023-02-08T07:45:02.040Z,4.92
2023-02-08T07:46:02.051Z,5.37
2023-02-08T07:47:02.166Z,4.92
2023-02-08T07:48:01.998Z,5.31
2023-02-08T07:49:02.001Z,5.03
2023-02-08T07:50:01.973Z,5.64
2023-02-08T07:51:01.932Z,5.11
2023-02-08T07:52:01.993Z,5.55
2023-02-08T07:53:01.928Z,5.43
2023-02-08T07:54:01.941Z,5.05
2023-02-08T07:55:01.940Z,5.21
2023-02-08T07:56:01.944Z,4.95
2023-02-08T07:57:03.654Z,5.25
2023-02-08T07:58:01.878Z,4.84
2023-02-08T07:59:01.920Z,5.00
2023-02-08T08:00:01.919Z,5.42
2023-02-08T08:01:12.598Z,6.12
2023-02-08T08:02:03.034Z,5.05
2023-02-08T08:03:01.979Z,5.97
2023-02-08T08:04:02.043Z,4.76
2023-02-08T08:05:01.973Z,5.87
2023-02-08T08:06:01.970Z,5.69
2023-02-08T08:07:02.002Z,5.40
2023-02-08T08:08:01.962Z,5.68
2023-02-08T08:09:01.954Z,5.47
2023-02-08T08:10:01.947Z,5.79
2023-02-08T08:11:03.792Z,4.86
2023-02-08T08:12:01.946Z,6.08
2023-02-08T08:13:01.927Z,5.50
2023-02-08T08:14:01.929Z,5.28
2023-02-08T08:15:02.802Z,5.70
2023-02-08T08:16:02.993Z,4.91
2023-02-08T08:17:02.140Z,5.30
2023-02-08T08:18:01.990Z,5.06
2023-02-08T08:19:01.856Z,4.76
2023-02-08T08:20:01.888Z,5.19
2023-02-08T08:21:01.870Z,4.97
2023-02-08T08:22:01.862Z,6.03
2023-02-08T08:23:01.940Z,5.62
2023-02-08T08:24:01.889Z,5.56
2023-02-08T08:25:01.818Z,6.01
2023-02-08T08:26:01.838Z,6.73
2023-02-08T08:27:04.472Z,6.06
2023-02-08T08:28:01.851Z,6.07
2023-02-08T08:29:01.886Z,5.70
2023-02-08T08:30:01.823Z,5.77
2023-02-08T08:31:01.875Z,5.75
2023-02-08T08:32:01.836Z,5.90
2023-02-08T08:33:01.779Z,5.73
2023-02-08T08:34:01.927Z,6.46
2023-02-08T08:35:01.757Z,7.54
2023-02-08T08:36:01.770Z,6.67
2023-02-08T08:37:01.774Z,7.86
2023-02-08T08:38:01.756Z,7.78
2023-02-08T08:39:01.710Z,8.83
2023-02-08T08:40:01.730Z,8.60
2023-02-08T08:41:01.724Z,8.15
2023-02-08T08:42:02.157Z,8.71
2023-02-08T08:43:01.717Z,7.59
2023-02-08T08:44:01.714Z,7.84
2023-02-08T08:45:01.729Z,7.49
2023-02-08T08:46:01.733Z,7.50
2023-02-08T08:47:01.680Z,7.36
2023-02-08T08:48:01.689Z,7.74
2023-02-08T08:49:01.649Z,7.06
2023-02-08T08:50:01.697Z,7.02
2023-02-08T08:51:01.666Z,6.25
2023-02-08T08:52:01.669Z,6.94
2023-02-08T08:53:01.631Z,6.58
2023-02-08T08:54:01.628Z,6.35
2023-02-08T08:55:01.606Z,6.55
2023-02-08T08:56:01.645Z,5.77
2023-02-08T08:57:01.656Z,5.91
2023-02-08T08:58:01.603Z,5.63
2023-02-08T08:59:01.577Z,5.44
2023-02-08T09:00:01.627Z,5.33
2023-02-08T09:01:01.589Z,5.49
2023-02-08T09:02:01.629Z,5.71
2023-02-08T09:03:01.590Z,5.03
2023-02-08T09:04:01.571Z,5.75
2023-02-08T09:05:01.572Z,5.75
2023-02-08T09:06:01.564Z,5.93
2023-02-08T09:07:01.585Z,4.66
2023-02-08T09:08:01.567Z,5.27
2023-02-08T09:09:01.579Z,5.33
2023-02-08T09:10:01.533Z,4.84
2023-02-08T09:11:01.603Z,5.08
2023-02-08T09:12:01.517Z,4.49
2023-02-08T09:13:01.617Z,5.22
2023-02-08T09:14:03.941Z,5.32
2023-02-08T09:15:01.613Z,4.73
2023-02-08T09:16:01.592Z,6.04
2023-02-08T09:17:01.526Z,5.05
2023-02-08T09:18:01.549Z,4.96
2023-02-08T09:19:02.606Z,5.34
2023-02-08T09:20:03.297Z,4.79
2023-02-08T09:21:01.565Z,4.48
2023-02-08T09:22:01.469Z,4.80
2023-02-08T09:23:01.478Z,4.96
2023-02-08T09:24:01.392Z,4.70
2023-02-08T09:25:01.404Z,5.01
2023-02-08T09:26:01.423Z,4.82
2023-02-08T09:27:01.395Z,4.72
2023-02-08T09:28:01.411Z,4.54
2023-02-08T09:29:01.400Z,4.75
2023-02-08T09:30:01.394Z,4.96
2023-02-08T09:31:01.617Z,4.76
2023-02-08T09:32:01.387Z,4.94
2023-02-08T09:33:01.704Z,4.95
2023-02-08T09:34:01.372Z,4.23
2023-02-08T09:35:01.362Z,5.04
2023-02-08T09:36:01.352Z,5.10
2023-02-08T09:37:01.349Z,5.35
2023-02-08T09:38:01.378Z,4.71
2023-02-08T09:39:01.373Z,4.89
2023-02-08T09:40:01.371Z,4.97
2023-02-08T09:41:01.306Z,5.36
2023-02-08T09:42:01.311Z,4.40
2023-02-08T09:43:01.657Z,4.85
2023-02-08T09:44:01.276Z,4.57
2023-02-08T09:45:01.259Z,4.81
2023-02-08T09:46:01.326Z,4.99
2023-02-08T09:47:01.331Z,5.24
2023-02-08T09:48:02.068Z,4.54
2023-02-08T09:49:01.286Z,4.36
2023-02-08T09:50:01.246Z,5.26
2023-02-08T09:51:01.262Z,5.87
2023-02-08T09:52:01.268Z,5.74
2023-02-08T09:53:01.716Z,5.24
2023-02-08T09:54:01.255Z,5.24
2023-02-08T09:55:01.232Z,5.70
2023-02-08T09:56:02.096Z,5.37
2023-02-08T09:57:01.200Z,6.29
2023-02-08T09:58:01.192Z,5.02
2023-02-08T09:59:01.207Z,5.85
2023-02-08T10:00:01.227Z,5.23
2023-02-08T10:01:01.242Z,5.13
2023-02-08T10:02:01.159Z,5.15
2023-02-08T10:03:01.221Z,5.44
2023-02-08T10:04:01.188Z,5.65
2023-02-08T10:05:01.174Z,5.77
2023-02-08T10:06:01.152Z,5.21
2023-02-08T10:07:01.153Z,5.47
2023-02-08T10:08:01.114Z,5.02
2023-02-08T10:09:01.120Z,5.55
2023-02-08T10:10:01.094Z,5.52
2023-02-08T10:11:01.129Z,5.26
2023-02-08T10:12:01.188Z,4.90
2023-02-08T10:13:01.265Z,5.12
2023-02-08T10:14:01.271Z,4.60
2023-02-08T10:15:01.339Z,5.01
2023-02-08T10:16:01.363Z,5.42
2023-02-08T10:17:01.398Z,6.87
2023-02-08T10:18:01.508Z,4.84
2023-02-08T10:19:01.491Z,4.76
2023-02-08T10:20:01.508Z,4.85
2023-02-08T10:21:01.567Z,5.22
2023-02-08T10:22:01.587Z,4.74
2023-02-08T10:23:01.624Z,4.65
2023-02-08T10:24:01.678Z,4.52
2023-02-08T10:25:01.654Z,4.76
2023-02-08T10:26:01.762Z,4.81
2023-02-08T10:27:01.799Z,4.38
2023-02-08T10:28:01.841Z,5.11
2023-02-08T10:29:01.832Z,5.20
2023-02-08T10:30:01.947Z,4.08
2023-02-08T10:31:02.063Z,4.65
2023-02-08T10:32:02.111Z,4.64
2023-02-08T10:33:02.081Z,5.80
2023-02-08T10:34:02.176Z,4.65
2023-02-08T10:35:02.578Z,5.00
2023-02-08T10:36:02.896Z,5.06
2023-02-08T10:37:02.419Z,5.03
2023-02-08T10:38:03.130Z,4.65
2023-02-08T10:39:02.533Z,4.86
2023-02-08T10:40:04.304Z,4.35
2023-02-08T10:41:02.467Z,5.24
2023-02-08T10:42:04.358Z,4.69
2023-02-08T10:43:03.420Z,5.57
2023-02-08T10:44:03.925Z,8.36
2023-02-08T10:45:04.045Z,8.84
2023-02-08T10:46:04.321Z,8.68
2023-02-08T10:47:04.366Z,8.89
2023-02-08T10:48:02.590Z,9.03
2023-02-08T10:49:04.163Z,9.10
2023-02-08T10:50:02.407Z,9.00
2023-02-08T10:51:02.606Z,8.28
2023-02-08T10:52:05.217Z,7.89
2023-02-08T10:53:03.127Z,7.48
2023-02-08T10:54:03.058Z,7.32
2023-02-08T10:55:02.527Z,6.10
2023-02-08T10:56:02.442Z,6.06
2023-02-08T10:57:03.224Z,6.11
2023-02-08T10:58:02.480Z,5.49
2023-02-08T10:59:03.151Z,5.72
2023-02-08T11:00:02.381Z,6.27
2023-02-08T11:01:02.402Z,5.64
2023-02-08T11:02:02.419Z,5.35
2023-02-08T11:03:02.306Z,5.04
2023-02-08T11:04:03.913Z,5.56
2023-02-08T11:05:02.286Z,5.47
2023-02-08T11:06:03.369Z,4.70
2023-02-08T11:07:03.137Z,4.53
2023-02-08T11:08:03.143Z,5.13
2023-02-08T11:09:04.162Z,4.48
2023-02-08T11:10:02.423Z,4.81
2023-02-08T11:11:03.104Z,4.30
2023-02-08T11:12:02.415Z,4.44
2023-02-08T11:13:02.398Z,4.60
2023-02-08T11:14:03.170Z,4.38
2023-02-08T11:15:02.365Z,4.14
2023-02-08T11:16:02.325Z,3.85
2023-02-08T11:17:02.310Z,3.75
2023-02-08T11:18:02.225Z,3.84
2023-02-08T11:19:02.295Z,3.66
2023-02-08T11:20:02.620Z,4.07
2023-02-08T11:21:02.374Z,3.64
2023-02-08T11:22:02.546Z,3.62
2023-02-08T11:23:02.356Z,3.91
2023-02-08T11:24:02.844Z,4.15
2023-02-08T11:25:04.179Z,3.90
2023-02-08T11:26:02.491Z,3.72
2023-02-08T11:27:02.687Z,4.30
2023-02-08T11:28:02.600Z,3.85
2023-02-08T11:29:03.154Z,3.80
2023-02-08T11:30:02.592Z,6.53
2023-02-08T11:31:04.458Z,5.74
2023-02-08T11:32:02.798Z,6.85
2023-02-08T11:33:02.683Z,7.78
2023-02-08T11:34:03.759Z,7.19
2023-02-08T11:35:02.897Z,6.70
2023-02-08T11:36:02.682Z,7.17
2023-02-08T11:37:04.377Z,8.42
2023-02-08T11:38:02.871Z,7.44
2023-02-08T11:39:02.734Z,8.86
2023-02-08T11:40:02.962Z,8.04
2023-02-08T11:41:03.000Z,7.44
2023-02-08T11:42:03.146Z,7.41
2023-02-08T11:43:02.990Z,7.07
2023-02-08T11:44:03.324Z,6.55
2023-02-08T11:45:03.909Z,6.43
2023-02-08T11:46:03.021Z,6.00
2023-02-08T11:47:04.665Z,5.98
2023-02-08T11:48:02.990Z,5.76
2023-02-08T11:49:03.019Z,6.05
2023-02-08T11:50:03.094Z,5.55
2023-02-08T11:51:03.110Z,5.65
2023-02-08T11:52:03.125Z,5.75
2023-02-08T11:53:03.182Z,4.98
2023-02-08T11:54:03.164Z,5.34
2023-02-08T11:55:03.230Z,5.85
2023-02-08T11:56:03.169Z,5.27
2023-02-08T11:57:03.220Z,5.52
2023-02-08T11:58:03.177Z,5.22
2023-02-08T11:59:03.274Z,4.76
2023-02-08T12:00:03.181Z,4.79
2023-02-08T12:01:03.196Z,5.45
2023-02-08T12:02:03.212Z,5.09
2023-02-08T12:03:03.227Z,4.71
2023-02-08T12:04:03.281Z,4.68
2023-02-08T12:05:03.645Z,4.53
2023-02-08T12:06:03.219Z,4.75
2023-02-08T12:07:03.246Z,4.94
2023-02-08T12:08:03.284Z,5.22
2023-02-08T12:09:03.276Z,5.03
2023-02-08T12:10:03.344Z,4.50
2023-02-08T12:11:03.381Z,4.60
2023-02-08T12:12:03.453Z,4.98
2023-02-08T12:13:03.494Z,4.48
2023-02-08T12:14:03.568Z,4.51
2023-02-08T12:15:03.665Z,4.43
2023-02-08T12:16:04.006Z,4.80
2023-02-08T12:17:03.697Z,4.35
2023-02-08T12:18:03.756Z,4.67
2023-02-08T12:19:03.833Z,4.31
2023-02-08T12:20:03.896Z,4.71
2023-02-08T12:21:03.957Z,4.93
2023-02-08T12:22:04.022Z,5.15
2023-02-08T12:23:04.050Z,4.61
2023-02-08T12:24:04.152Z,4.03
2023-02-08T12:25:04.238Z,4.65
2023-02-08T12:26:04.331Z,4.05
2023-02-08T12:27:04.332Z,4.23
2023-02-08T12:28:04.387Z,5.29
2023-02-08T12:29:04.495Z,4.28
2023-02-08T12:30:04.772Z,4.45
2023-02-08T12:31:04.986Z,4.03
2023-02-08T12:32:04.585Z,4.37
2023-02-08T12:33:04.634Z,4.22
2023-02-08T12:34:04.734Z,4.49
2023-02-08T12:35:04.797Z,4.18
2023-02-08T12:36:05.672Z,4.76
2023-02-08T12:37:04.902Z,4.36
2023-02-08T12:38:04.848Z,4.58
2023-02-08T12:39:17.056Z,4.49
2023-02-08T12:40:06.294Z,4.48
2023-02-08T12:41:04.871Z,4.32
2023-02-08T12:42:04.827Z,4.09
2023-02-08T12:43:04.863Z,3.65
2023-02-08T12:44:04.850Z,3.49
2023-02-08T12:45:04.842Z,4.03
2023-02-08T12:46:04.839Z,5.02
2023-02-08T12:47:04.846Z,4.49
2023-02-08T12:48:05.154Z,4.69
2023-02-08T12:49:04.897Z,4.71
2023-02-08T12:50:04.964Z,3.94
2023-02-08T12:51:05.038Z,4.21
2023-02-08T12:52:07.429Z,5.40
2023-02-08T12:53:05.080Z,4.20
2023-02-08T12:54:05.050Z,4.01
2023-02-08T12:55:05.055Z,3.87
2023-02-08T12:56:05.061Z,4.41
2023-02-08T12:57:05.035Z,4.12
2023-02-08T12:58:05.051Z,4.19
2023-02-08T12:59:13.356Z,4.13
2023-02-08T13:00:06.047Z,4.61
2023-02-08T13:01:05.024Z,4.05
2023-02-08T13:02:05.004Z,4.27
2023-02-08T13:03:05.027Z,4.24
2023-02-08T13:04:05.013Z,4.82
2023-02-08T13:05:04.988Z,3.99
2023-02-08T13:06:05.337Z,3.88
2023-02-08T13:07:04.977Z,4.27
2023-02-08T13:08:04.981Z,4.04
2023-02-08T13:09:05.012Z,4.08
2023-02-08T13:10:05.094Z,4.34
2023-02-08T13:11:18.921Z,4.04
2023-02-08T13:12:06.150Z,3.75
2023-02-08T13:13:05.125Z,4.42
2023-02-08T13:14:05.108Z,4.66
2023-02-08T13:15:05.128Z,4.27
2023-02-08T13:16:05.119Z,4.40
2023-02-08T13:17:05.101Z,4.48
2023-02-08T13:18:05.074Z,4.78
2023-02-08T13:19:05.075Z,3.84
2023-02-08T13:20:05.089Z,4.06
2023-02-08T13:21:05.097Z,3.74
2023-02-08T13:22:05.104Z,4.32
2023-02-08T13:23:05.143Z,4.19
2023-02-08T13:24:05.215Z,4.12
2023-02-08T13:25:07.873Z,4.72
2023-02-08T13:26:05.245Z,4.24
2023-02-08T13:27:05.266Z,4.54
2023-02-08T13:28:05.367Z,4.63
2023-02-08T13:29:05.259Z,3.87
2023-02-08T13:30:05.227Z,3.92
2023-02-08T13:31:05.356Z,4.40
2023-02-08T13:32:05.219Z,4.37
2023-02-08T13:33:05.203Z,4.69
2023-02-08T13:34:05.214Z,4.10
2023-02-08T13:35:05.226Z,4.37
2023-02-08T13:36:05.250Z,4.15
2023-02-08T13:37:13.471Z,4.47
2023-02-08T13:38:06.177Z,4.43
2023-02-08T13:39:05.176Z,4.87
2023-02-08T13:40:05.157Z,3.41
2023-02-08T13:41:05.163Z,3.83
2023-02-08T13:42:05.145Z,4.53
2023-02-08T13:43:05.155Z,3.67
2023-02-08T13:44:05.147Z,4.70
2023-02-08T13:45:05.135Z,4.25
2023-02-08T13:46:05.196Z,3.76
2023-02-08T13:47:05.184Z,3.77
2023-02-08T13:48:05.236Z,4.45
2023-02-08T13:49:05.288Z,3.87
2023-02-08T13:50:05.362Z,3.94
2023-02-08T13:51:05.411Z,4.09
2023-02-08T13:52:05.483Z,4.08
2023-02-08T13:53:05.524Z,3.96
2023-02-08T13:54:07.174Z,4.64
2023-02-08T13:55:05.568Z,3.93
2023-02-08T13:56:05.623Z,3.74
2023-02-08T13:57:05.542Z,4.10
2023-02-08T13:58:05.565Z,4.49
2023-02-08T13:59:05.564Z,4.33
2023-02-08T14:00:05.549Z,4.38
2023-02-08T14:01:05.544Z,4.12
2023-02-08T14:02:05.613Z,3.97
2023-02-08T14:03:05.593Z,4.15
2023-02-08T14:04:05.529Z,4.25
2023-02-08T14:05:05.646Z,4.04
2023-02-08T14:06:05.628Z,3.83
2023-02-08T14:07:05.518Z,3.84
2023-02-08T14:08:05.491Z,4.59
2023-02-08T14:09:05.461Z,4.73
2023-02-08T14:10:05.504Z,3.88
2023-02-08T14:11:05.449Z,4.19
2023-02-08T14:12:05.457Z,3.81
2023-02-08T14:13:05.457Z,4.55
2023-02-08T14:14:05.526Z,4.58
2023-02-08T14:15:05.462Z,4.16
2023-02-08T14:16:05.497Z,4.39
2023-02-08T14:17:05.434Z,3.89
2023-02-08T14:18:06.261Z,4.19
2023-02-08T14:19:05.429Z,4.05
2023-02-08T14:20:05.403Z,4.03
2023-02-08T14:21:05.421Z,4.11
2023-02-08T14:22:05.384Z,3.65
2023-02-08T14:23:05.390Z,4.29
2023-02-08T14:24:05.360Z,4.34
2023-02-08T14:25:05.359Z,5.01
2023-02-08T14:26:05.369Z,4.91
2023-02-08T14:27:05.362Z,4.57
2023-02-08T14:28:05.398Z,4.07
2023-02-08T14:29:05.356Z,3.78
2023-02-08T14:30:05.363Z,4.15
2023-02-08T14:31:05.961Z,3.85
2023-02-08T14:32:05.345Z,4.19
2023-02-08T14:33:05.337Z,4.32
2023-02-08T14:34:05.318Z,4.54
2023-02-08T14:35:05.303Z,3.94
2023-02-08T14:36:05.337Z,4.11